sensor_id;sensor_type;location;lat;lon;timestamp;pressure;altitude;pressure_sealevel;temperature
56286;BMP180;42191;47.562;9.686;2022-08-18T00:00:43;96702.00;;;22.90
56286;BMP180;42191;47.562;9.686;2022-08-18T00:03:10;96705.00;;;22.90
56286;BMP180;42191;47.562;9.686;2022-08-18T00:05:37;96702.00;;;22.80
56286;BMP180;42191;47.562;9.686;2022-08-18T00:08:04;96697.00;;;22.80
56286;BMP180;42191;47.562;9.686;2022-08-18T00:10:30;96698.00;;;22.70
56286;BMP180;42191;47.562;9.686;2022-08-18T00:12:57;96692.00;;;22.70
56286;BMP180;42191;47.562;9.686;2022-08-18T00:15:23;96690.00;;;22.60
56286;BMP180;42191;47.562;9.686;2022-08-18T00:17:49;96697.00;;;22.60
56286;BMP180;42191;47.562;9.686;2022-08-18T00:20:23;96687.00;;;22.50
56286;BMP180;42191;47.562;9.686;2022-08-18T00:22:50;96686.00;;;22.50
56286;BMP180;42191;47.562;9.686;2022-08-18T00:25:19;96689.00;;;22.50
56286;BMP180;42191;47.562;9.686;2022-08-18T00:27:45;96690.00;;;22.40
56286;BMP180;42191;47.562;9.686;2022-08-18T00:30:15;96684.00;;;22.40
56286;BMP180;42191;47.562;9.686;2022-08-18T00:32:46;96687.00;;;22.30
56286;BMP180;42191;47.562;9.686;2022-08-18T00:35:16;96673.00;;;22.30
56286;BMP180;42191;47.562;9.686;2022-08-18T00:37:43;96673.00;;;22.20
56286;BMP180;42191;47.562;9.686;2022-08-18T00:40:15;96670.00;;;22.20
56286;BMP180;42191;47.562;9.686;2022-08-18T00:42:51;96658.00;;;22.20
56286;BMP180;42191;47.562;9.686;2022-08-18T00:45:21;96657.00;;;22.10
56286;BMP180;42191;47.562;9.686;2022-08-18T00:47:49;96663.00;;;22.10
56286;BMP180;42191;47.562;9.686;2022-08-18T00:50:23;96647.00;;;22.10
56286;BMP180;42191;47.562;9.686;2022-08-18T00:53:03;96636.00;;;22.00
56286;BMP180;42191;47.562;9.686;2022-08-18T00:55:30;96623.00;;;22.00
56286;BMP180;42191;47.562;9.686;2022-08-18T00:58:09;96622.00;;;21.90
56286;BMP180;42191;47.562;9.686;2022-08-18T01:00:36;96615.00;;;21.90
56286;BMP180;42191;47.562;9.686;2022-08-18T01:03:13;96608.00;;;21.90
56286;BMP180;42191;47.562;9.686;2022-08-18T01:08:39;96612.00;;;21.80
56286;BMP180;42191;47.562;9.686;2022-08-18T01:11:05;96608.00;;;21.70
56286;BMP180;42191;47.562;9.686;2022-08-18T01:13:32;96604.00;;;21.70
56286;BMP180;42191;47.562;9.686;2022-08-18T01:15:59;96605.00;;;21.70
56286;BMP180;42191;47.562;9.686;2022-08-18T01:18:46;96597.00;;;21.60
56286;BMP180;42191;47.562;9.686;2022-08-18T01:21:31;96596.00;;;21.60
56286;BMP180;42191;47.562;9.686;2022-08-18T01:24:17;96592.00;;;21.50
56286;BMP180;42191;47.562;9.686;2022-08-18T01:26:44;96582.00;;;21.50
56286;BMP180;42191;47.562;9.686;2022-08-18T01:29:17;96574.00;;;21.50
56286;BMP180;42191;47.562;9.686;2022-08-18T01:31:47;96579.00;;;21.40
56286;BMP180;42191;47.562;9.686;2022-08-18T01:34:15;96582.00;;;21.40
56286;BMP180;42191;47.562;9.686;2022-08-18T01:36:42;96588.00;;;21.40
56286;BMP180;42191;47.562;9.686;2022-08-18T01:39:11;96582.00;;;21.30
56286;BMP180;42191;47.562;9.686;2022-08-18T01:41:39;96582.00;;;21.30
56286;BMP180;42191;47.562;9.686;2022-08-18T01:44:05;96581.00;;;21.30
56286;BMP180;42191;47.562;9.686;2022-08-18T01:46:34;96556.00;;;21.20
56286;BMP180;42191;47.562;9.686;2022-08-18T01:49:02;96559.00;;;21.20
56286;BMP180;42191;47.562;9.686;2022-08-18T01:51:30;96548.00;;;21.20
56286;BMP180;42191;47.562;9.686;2022-08-18T01:53:57;96551.00;;;21.20
56286;BMP180;42191;47.562;9.686;2022-08-18T01:56:25;96554.00;;;21.10
56286;BMP180;42191;47.562;9.686;2022-08-18T01:58:53;96553.00;;;21.10
56286;BMP180;42191;47.562;9.686;2022-08-18T02:01:20;96551.00;;;21.10
56286;BMP180;42191;47.562;9.686;2022-08-18T02:03:52;96546.00;;;21.10
56286;BMP180;42191;47.562;9.686;2022-08-18T02:06:20;96554.00;;;21.10
56286;BMP180;42191;47.562;9.686;2022-08-18T02:08:47;96548.00;;;21.10
56286;BMP180;42191;47.562;9.686;2022-08-18T02:11:14;96557.00;;;21.10
56286;BMP180;42191;47.562;9.686;2022-08-18T02:13:40;96560.00;;;21.10
56286;BMP180;42191;47.562;9.686;2022-08-18T02:16:07;96558.00;;;21.10
56286;BMP180;42191;47.562;9.686;2022-08-18T02:18:35;96562.00;;;21.10
56286;BMP180;42191;47.562;9.686;2022-08-18T02:21:14;96561.00;;;21.10
56286;BMP180;42191;47.562;9.686;2022-08-18T02:23:42;96535.00;;;21.10
56286;BMP180;42191;47.562;9.686;2022-08-18T02:26:12;96528.00;;;21.10
56286;BMP180;42191;47.562;9.686;2022-08-18T02:28:39;96525.00;;;21.10
56286;BMP180;42191;47.562;9.686;2022-08-18T02:31:07;96527.00;;;21.10
56286;BMP180;42191;47.562;9.686;2022-08-18T02:33:34;96528.00;;;21.10
56286;BMP180;42191;47.562;9.686;2022-08-18T02:36:00;96514.00;;;21.10
56286;BMP180;42191;47.562;9.686;2022-08-18T02:38:28;96522.00;;;21.10
56286;BMP180;42191;47.562;9.686;2022-08-18T02:40:56;96511.00;;;21.10
56286;BMP180;42191;47.562;9.686;2022-08-18T02:43:23;96509.00;;;21.10
56286;BMP180;42191;47.562;9.686;2022-08-18T02:45:50;96509.00;;;21.10
56286;BMP180;42191;47.562;9.686;2022-08-18T02:48:16;96501.00;;;21.10
56286;BMP180;42191;47.562;9.686;2022-08-18T02:50:44;96497.00;;;21.10
56286;BMP180;42191;47.562;9.686;2022-08-18T02:53:12;96499.00;;;21.10
56286;BMP180;42191;47.562;9.686;2022-08-18T02:55:48;96494.00;;;21.10
56286;BMP180;42191;47.562;9.686;2022-08-18T02:58:15;96498.00;;;21.20
56286;BMP180;42191;47.562;9.686;2022-08-18T03:00:41;96493.00;;;21.20
56286;BMP180;42191;47.562;9.686;2022-08-18T03:03:08;96486.00;;;21.20
56286;BMP180;42191;47.562;9.686;2022-08-18T03:05:34;96478.00;;;21.20
56286;BMP180;42191;47.562;9.686;2022-08-18T03:08:00;96489.00;;;21.20
56286;BMP180;42191;47.562;9.686;2022-08-18T03:10:26;96496.00;;;21.20
56286;BMP180;42191;47.562;9.686;2022-08-18T03:12:52;96490.00;;;21.20
56286;BMP180;42191;47.562;9.686;2022-08-18T03:15:18;96478.00;;;21.20
56286;BMP180;42191;47.562;9.686;2022-08-18T03:17:44;96473.00;;;21.20
56286;BMP180;42191;47.562;9.686;2022-08-18T03:20:11;96453.00;;;21.20
56286;BMP180;42191;47.562;9.686;2022-08-18T03:22:37;96458.00;;;21.20
56286;BMP180;42191;47.562;9.686;2022-08-18T03:25:04;96453.00;;;21.20
56286;BMP180;42191;47.562;9.686;2022-08-18T03:27:30;96441.00;;;21.20
56286;BMP180;42191;47.562;9.686;2022-08-18T03:29:56;96455.00;;;21.20
56286;BMP180;42191;47.562;9.686;2022-08-18T03:32:22;96463.00;;;21.20
56286;BMP180;42191;47.562;9.686;2022-08-18T03:34:48;96476.00;;;21.20
56286;BMP180;42191;47.562;9.686;2022-08-18T03:37:14;96471.00;;;21.20
56286;BMP180;42191;47.562;9.686;2022-08-18T03:39:41;96457.00;;;21.20
56286;BMP180;42191;47.562;9.686;2022-08-18T03:42:07;96439.00;;;21.20
56286;BMP180;42191;47.562;9.686;2022-08-18T03:44:34;96443.00;;;21.10
56286;BMP180;42191;47.562;9.686;2022-08-18T03:47:08;96458.00;;;21.10
56286;BMP180;42191;47.562;9.686;2022-08-18T03:49:35;96457.00;;;21.10
56286;BMP180;42191;47.562;9.686;2022-08-18T03:52:01;96458.00;;;21.10
56286;BMP180;42191;47.562;9.686;2022-08-18T03:54:29;96462.00;;;21.10
56286;BMP180;42191;47.562;9.686;2022-08-18T03:56:56;96463.00;;;21.10
56286;BMP180;42191;47.562;9.686;2022-08-18T03:59:24;96456.00;;;21.10
56286;BMP180;42191;47.562;9.686;2022-08-18T04:01:52;96461.00;;;21.10
56286;BMP180;42191;47.562;9.686;2022-08-18T04:04:22;96472.00;;;21.10
56286;BMP180;42191;47.562;9.686;2022-08-18T04:06:52;96470.00;;;21.10
56286;BMP180;42191;47.562;9.686;2022-08-18T04:09:19;96474.00;;;21.20
56286;BMP180;42191;47.562;9.686;2022-08-18T04:11:47;96468.00;;;21.20
56286;BMP180;42191;47.562;9.686;2022-08-18T04:14:15;96490.00;;;21.20
56286;BMP180;42191;47.562;9.686;2022-08-18T04:16:43;96488.00;;;21.20
56286;BMP180;42191;47.562;9.686;2022-08-18T04:19:10;96498.00;;;21.20
56286;BMP180;42191;47.562;9.686;2022-08-18T04:21:39;96496.00;;;21.30
56286;BMP180;42191;47.562;9.686;2022-08-18T04:24:08;96479.00;;;21.30
56286;BMP180;42191;47.562;9.686;2022-08-18T04:26:41;96487.00;;;21.30
56286;BMP180;42191;47.562;9.686;2022-08-18T04:29:09;96486.00;;;21.30
56286;BMP180;42191;47.562;9.686;2022-08-18T04:31:36;96494.00;;;21.30
56286;BMP180;42191;47.562;9.686;2022-08-18T04:34:03;96494.00;;;21.30
56286;BMP180;42191;47.562;9.686;2022-08-18T04:36:30;96504.00;;;21.30
56286;BMP180;42191;47.562;9.686;2022-08-18T04:38:59;96500.00;;;21.40
56286;BMP180;42191;47.562;9.686;2022-08-18T04:41:25;96514.00;;;21.40
56286;BMP180;42191;47.562;9.686;2022-08-18T04:43:59;96517.00;;;21.40
56286;BMP180;42191;47.562;9.686;2022-08-18T04:46:26;96522.00;;;21.40
56286;BMP180;42191;47.562;9.686;2022-08-18T04:48:53;96526.00;;;21.50
56286;BMP180;42191;47.562;9.686;2022-08-18T04:51:26;96544.00;;;21.50
56286;BMP180;42191;47.562;9.686;2022-08-18T04:53:53;96543.00;;;21.60
56286;BMP180;42191;47.562;9.686;2022-08-18T04:56:29;96562.00;;;21.60
56286;BMP180;42191;47.562;9.686;2022-08-18T05:01:35;96579.00;;;21.70
56286;BMP180;42191;47.562;9.686;2022-08-18T05:04:02;96575.00;;;21.70
56286;BMP180;42191;47.562;9.686;2022-08-18T05:06:28;96565.00;;;21.70
56286;BMP180;42191;47.562;9.686;2022-08-18T05:08:57;96561.00;;;21.70
56286;BMP180;42191;47.562;9.686;2022-08-18T05:11:26;96545.00;;;21.70
56286;BMP180;42191;47.562;9.686;2022-08-18T05:13:59;96519.00;;;21.70
56286;BMP180;42191;47.562;9.686;2022-08-18T05:16:26;96496.00;;;21.70
56286;BMP180;42191;47.562;9.686;2022-08-18T05:18:53;96490.00;;;21.80
56286;BMP180;42191;47.562;9.686;2022-08-18T05:21:20;96477.00;;;21.80
56286;BMP180;42191;47.562;9.686;2022-08-18T05:23:48;96467.00;;;21.80
56286;BMP180;42191;47.562;9.686;2022-08-18T05:26:18;96443.00;;;21.80
56286;BMP180;42191;47.562;9.686;2022-08-18T05:28:45;96438.00;;;21.80
56286;BMP180;42191;47.562;9.686;2022-08-18T05:31:14;96435.00;;;21.90
56286;BMP180;42191;47.562;9.686;2022-08-18T05:33:41;96433.00;;;21.90
56286;BMP180;42191;47.562;9.686;2022-08-18T05:39:26;96443.00;;;21.90
56286;BMP180;42191;47.562;9.686;2022-08-18T05:42:14;96428.00;;;21.90
56286;BMP180;42191;47.562;9.686;2022-08-18T05:44:47;96424.00;;;21.90
56286;BMP180;42191;47.562;9.686;2022-08-18T05:47:18;96414.00;;;21.90
56286;BMP180;42191;47.562;9.686;2022-08-18T05:49:47;96428.00;;;22.00
56286;BMP180;42191;47.562;9.686;2022-08-18T05:52:27;96422.00;;;22.10
56286;BMP180;42191;47.562;9.686;2022-08-18T05:55:00;96429.00;;;22.10
56286;BMP180;42191;47.562;9.686;2022-08-18T05:57:52;96416.00;;;22.20
56286;BMP180;42191;47.562;9.686;2022-08-18T06:00:20;96420.00;;;22.30
56286;BMP180;42191;47.562;9.686;2022-08-18T06:02:57;96424.00;;;22.30
56286;BMP180;42191;47.562;9.686;2022-08-18T06:05:35;96449.00;;;22.40
56286;BMP180;42191;47.562;9.686;2022-08-18T06:08:07;96449.00;;;22.40
56286;BMP180;42191;47.562;9.686;2022-08-18T06:10:36;96474.00;;;22.50
56286;BMP180;42191;47.562;9.686;2022-08-18T06:13:03;96493.00;;;22.50
56286;BMP180;42191;47.562;9.686;2022-08-18T06:15:50;96509.00;;;22.50
56286;BMP180;42191;47.562;9.686;2022-08-18T06:18:47;96521.00;;;22.50
56286;BMP180;42191;47.562;9.686;2022-08-18T06:21:52;96515.00;;;22.50
56286;BMP180;42191;47.562;9.686;2022-08-18T06:24:34;96517.00;;;22.40
56286;BMP180;42191;47.562;9.686;2022-08-18T06:35:15;96535.00;;;22.40
56286;BMP180;42191;47.562;9.686;2022-08-18T06:38:06;96532.00;;;22.30
56286;BMP180;42191;47.562;9.686;2022-08-18T06:41:04;96538.00;;;22.30
56286;BMP180;42191;47.562;9.686;2022-08-18T06:43:34;96534.00;;;22.40
56286;BMP180;42191;47.562;9.686;2022-08-18T06:46:06;96550.00;;;22.40
56286;BMP180;42191;47.562;9.686;2022-08-18T06:48:53;96544.00;;;22.50
56286;BMP180;42191;47.562;9.686;2022-08-18T06:51:21;96542.00;;;22.50
56286;BMP180;42191;47.562;9.686;2022-08-18T06:59:24;96538.00;;;22.60
56286;BMP180;42191;47.562;9.686;2022-08-18T07:04:33;96545.00;;;22.80
56286;BMP180;42191;47.562;9.686;2022-08-18T07:10:03;96542.00;;;22.90
56286;BMP180;42191;47.562;9.686;2022-08-18T07:12:30;96555.00;;;23.00
56286;BMP180;42191;47.562;9.686;2022-08-18T07:14:59;96546.00;;;23.10
56286;BMP180;42191;47.562;9.686;2022-08-18T07:17:27;96549.00;;;23.20
56286;BMP180;42191;47.562;9.686;2022-08-18T07:22:58;96553.00;;;23.40
56286;BMP180;42191;47.562;9.686;2022-08-18T07:25:28;96554.00;;;23.50
56286;BMP180;42191;47.562;9.686;2022-08-18T07:27:55;96546.00;;;23.60
56286;BMP180;42191;47.562;9.686;2022-08-18T07:33:05;96556.00;;;23.90
56286;BMP180;42191;47.562;9.686;2022-08-18T07:35:38;96556.00;;;24.00
56286;BMP180;42191;47.562;9.686;2022-08-18T07:38:34;96543.00;;;24.20
56286;BMP180;42191;47.562;9.686;2022-08-18T07:41:30;96546.00;;;24.40
56286;BMP180;42191;47.562;9.686;2022-08-18T07:44:22;96548.00;;;24.60
56286;BMP180;42191;47.562;9.686;2022-08-18T07:47:04;96558.00;;;24.80
56286;BMP180;42191;47.562;9.686;2022-08-18T07:49:34;96562.00;;;25.00
56286;BMP180;42191;47.562;9.686;2022-08-18T07:54:45;96570.00;;;25.20
56286;BMP180;42191;47.562;9.686;2022-08-18T07:57:27;96576.00;;;25.40
56286;BMP180;42191;47.562;9.686;2022-08-18T08:06:08;96554.00;;;26.10
56286;BMP180;42191;47.562;9.686;2022-08-18T08:25:23;96533.00;;;26.50
56286;BMP180;42191;47.562;9.686;2022-08-18T08:28:31;96524.00;;;26.50
56286;BMP180;42191;47.562;9.686;2022-08-18T08:30:59;96530.00;;;26.50
56286;BMP180;42191;47.562;9.686;2022-08-18T08:33:37;96513.00;;;26.60
56286;BMP180;42191;47.562;9.686;2022-08-18T08:36:11;96522.00;;;26.70
56286;BMP180;42191;47.562;9.686;2022-08-18T08:38:54;96514.00;;;26.80
56286;BMP180;42191;47.562;9.686;2022-08-18T08:41:36;96531.00;;;26.90
56286;BMP180;42191;47.562;9.686;2022-08-18T08:44:34;96531.00;;;27.10
56286;BMP180;42191;47.562;9.686;2022-08-18T08:49:56;96568.00;;;27.30
56286;BMP180;42191;47.562;9.686;2022-08-18T08:52:34;96573.00;;;27.40
56286;BMP180;42191;47.562;9.686;2022-08-18T08:58:02;96561.00;;;27.50
56286;BMP180;42191;47.562;9.686;2022-08-18T09:00:38;96564.00;;;27.70
56286;BMP180;42191;47.562;9.686;2022-08-18T09:05:59;96566.00;;;28.10
56286;BMP180;42191;47.562;9.686;2022-08-18T09:20:00;96578.00;;;28.70
56286;BMP180;42191;47.562;9.686;2022-08-18T09:22:39;96580.00;;;28.80
56286;BMP180;42191;47.562;9.686;2022-08-18T09:25:42;96584.00;;;28.80
56286;BMP180;42191;47.562;9.686;2022-08-18T09:36:19;96560.00;;;28.60
56286;BMP180;42191;47.562;9.686;2022-08-18T09:38:51;96560.00;;;28.70
56286;BMP180;42191;47.562;9.686;2022-08-18T09:42:00;96546.00;;;28.70
56286;BMP180;42191;47.562;9.686;2022-08-18T09:49:51;96524.00;;;28.80
56286;BMP180;42191;47.562;9.686;2022-08-18T09:55:06;96500.00;;;28.90
56286;BMP180;42191;47.562;9.686;2022-08-18T10:00:40;96490.00;;;28.90
56286;BMP180;42191;47.562;9.686;2022-08-18T10:03:13;96486.00;;;28.90
56286;BMP180;42191;47.562;9.686;2022-08-18T10:05:57;96474.00;;;29.00
56286;BMP180;42191;47.562;9.686;2022-08-18T10:11:19;96477.00;;;29.10
56286;BMP180;42191;47.562;9.686;2022-08-18T10:14:05;96489.00;;;29.20
56286;BMP180;42191;47.562;9.686;2022-08-18T10:16:59;96484.00;;;29.20
56286;BMP180;42191;47.562;9.686;2022-08-18T10:19:57;96477.00;;;29.30
56286;BMP180;42191;47.562;9.686;2022-08-18T10:22:47;96470.00;;;29.40
56286;BMP180;42191;47.562;9.686;2022-08-18T10:25:31;96443.00;;;29.50
56286;BMP180;42191;47.562;9.686;2022-08-18T10:27:58;96443.00;;;29.70
56286;BMP180;42191;47.562;9.686;2022-08-18T10:33:07;96443.00;;;29.80
56286;BMP180;42191;47.562;9.686;2022-08-18T10:40:40;96452.00;;;29.90
56286;BMP180;42191;47.562;9.686;2022-08-18T10:43:21;96449.00;;;29.90
56286;BMP180;42191;47.562;9.686;2022-08-18T10:45:53;96443.00;;;29.90
56286;BMP180;42191;47.562;9.686;2022-08-18T10:48:30;96434.00;;;29.90
56286;BMP180;42191;47.562;9.686;2022-08-18T10:51:23;96430.00;;;29.80
56286;BMP180;42191;47.562;9.686;2022-08-18T10:53:58;96409.00;;;29.70
56286;BMP180;42191;47.562;9.686;2022-08-18T10:56:50;96395.00;;;29.60
56286;BMP180;42191;47.562;9.686;2022-08-18T11:02:21;96381.00;;;29.50
56286;BMP180;42191;47.562;9.686;2022-08-18T11:04:53;96376.00;;;29.50
56286;BMP180;42191;47.562;9.686;2022-08-18T11:07:28;96381.00;;;29.40
56286;BMP180;42191;47.562;9.686;2022-08-18T11:09:56;96380.00;;;29.30
56286;BMP180;42191;47.562;9.686;2022-08-18T11:15:18;96400.00;;;29.20
56286;BMP180;42191;47.562;9.686;2022-08-18T11:20:33;96378.00;;;29.10
56286;BMP180;42191;47.562;9.686;2022-08-18T11:23:01;96382.00;;;29.00
56286;BMP180;42191;47.562;9.686;2022-08-18T11:25:32;96381.00;;;29.00
56286;BMP180;42191;47.562;9.686;2022-08-18T11:28:00;96387.00;;;29.10
56286;BMP180;42191;47.562;9.686;2022-08-18T11:30:33;96383.00;;;29.20
56286;BMP180;42191;47.562;9.686;2022-08-18T11:33:02;96385.00;;;29.30
56286;BMP180;42191;47.562;9.686;2022-08-18T11:35:43;96390.00;;;29.30
56286;BMP180;42191;47.562;9.686;2022-08-18T11:38:12;96389.00;;;29.40
56286;BMP180;42191;47.562;9.686;2022-08-18T11:40:41;96385.00;;;29.40
56286;BMP180;42191;47.562;9.686;2022-08-18T11:51:56;96365.00;;;29.30
56286;BMP180;42191;47.562;9.686;2022-08-18T11:54:39;96365.00;;;29.30
56286;BMP180;42191;47.562;9.686;2022-08-18T11:57:26;96369.00;;;29.20
56286;BMP180;42191;47.562;9.686;2022-08-18T11:59:52;96368.00;;;29.20
56286;BMP180;42191;47.562;9.686;2022-08-18T12:02:20;96371.00;;;29.10
56286;BMP180;42191;47.562;9.686;2022-08-18T12:04:51;96373.00;;;29.10
56286;BMP180;42191;47.562;9.686;2022-08-18T12:07:28;96378.00;;;29.00
56286;BMP180;42191;47.562;9.686;2022-08-18T12:10:23;96367.00;;;28.90
56286;BMP180;42191;47.562;9.686;2022-08-18T12:13:02;96357.00;;;28.80
56286;BMP180;42191;47.562;9.686;2022-08-18T12:18:50;96362.00;;;28.60
56286;BMP180;42191;47.562;9.686;2022-08-18T12:21:16;96359.00;;;28.50
56286;BMP180;42191;47.562;9.686;2022-08-18T12:23:49;96363.00;;;28.40
56286;BMP180;42191;47.562;9.686;2022-08-18T12:26:16;96369.00;;;28.30
56286;BMP180;42191;47.562;9.686;2022-08-18T12:28:42;96364.00;;;28.20
56286;BMP180;42191;47.562;9.686;2022-08-18T12:31:09;96359.00;;;28.20
56286;BMP180;42191;47.562;9.686;2022-08-18T12:33:36;96370.00;;;28.10
56286;BMP180;42191;47.562;9.686;2022-08-18T12:36:05;96371.00;;;28.10
56286;BMP180;42191;47.562;9.686;2022-08-18T12:38:32;96358.00;;;28.00
56286;BMP180;42191;47.562;9.686;2022-08-18T12:40:59;96346.00;;;27.90
56286;BMP180;42191;47.562;9.686;2022-08-18T12:43:25;96343.00;;;27.90
56286;BMP180;42191;47.562;9.686;2022-08-18T12:45:52;96347.00;;;27.90
56286;BMP180;42191;47.562;9.686;2022-08-18T12:48:18;96345.00;;;27.90
56286;BMP180;42191;47.562;9.686;2022-08-18T12:50:44;96341.00;;;27.90
56286;BMP180;42191;47.562;9.686;2022-08-18T12:53:11;96340.00;;;27.80
56286;BMP180;42191;47.562;9.686;2022-08-18T12:55:41;96338.00;;;27.80
56286;BMP180;42191;47.562;9.686;2022-08-18T12:58:08;96342.00;;;27.80
56286;BMP180;42191;47.562;9.686;2022-08-18T13:00:34;96343.00;;;27.80
56286;BMP180;42191;47.562;9.686;2022-08-18T13:03:01;96341.00;;;27.90
56286;BMP180;42191;47.562;9.686;2022-08-18T13:05:27;96335.00;;;27.90
56286;BMP180;42191;47.562;9.686;2022-08-18T13:10:28;96328.00;;;27.90
56286;BMP180;42191;47.562;9.686;2022-08-18T13:12:54;96317.00;;;27.90
56286;BMP180;42191;47.562;9.686;2022-08-18T13:15:21;96314.00;;;27.90
56286;BMP180;42191;47.562;9.686;2022-08-18T13:17:48;96322.00;;;27.90
56286;BMP180;42191;47.562;9.686;2022-08-18T13:20:15;96326.00;;;27.90
56286;BMP180;42191;47.562;9.686;2022-08-18T13:22:42;96322.00;;;27.80
56286;BMP180;42191;47.562;9.686;2022-08-18T13:25:10;96311.00;;;27.80
56286;BMP180;42191;47.562;9.686;2022-08-18T13:27:37;96313.00;;;27.70
56286;BMP180;42191;47.562;9.686;2022-08-18T13:30:06;96316.00;;;27.60
56286;BMP180;42191;47.562;9.686;2022-08-18T13:32:34;96323.00;;;27.60
56286;BMP180;42191;47.562;9.686;2022-08-18T13:35:00;96324.00;;;27.50
56286;BMP180;42191;47.562;9.686;2022-08-18T13:37:26;96331.00;;;27.40
56286;BMP180;42191;47.562;9.686;2022-08-18T13:39:53;96325.00;;;27.40
56286;BMP180;42191;47.562;9.686;2022-08-18T13:42:19;96325.00;;;27.30
56286;BMP180;42191;47.562;9.686;2022-08-18T13:44:45;96334.00;;;27.20
56286;BMP180;42191;47.562;9.686;2022-08-18T13:47:12;96327.00;;;27.10
56286;BMP180;42191;47.562;9.686;2022-08-18T13:49:38;96335.00;;;27.10
56286;BMP180;42191;47.562;9.686;2022-08-18T13:52:05;96333.00;;;27.00
56286;BMP180;42191;47.562;9.686;2022-08-18T13:54:32;96331.00;;;27.00
56286;BMP180;42191;47.562;9.686;2022-08-18T13:56:59;96338.00;;;26.90
56286;BMP180;42191;47.562;9.686;2022-08-18T13:59:26;96342.00;;;26.90
56286;BMP180;42191;47.562;9.686;2022-08-18T14:01:58;96350.00;;;26.90
56286;BMP180;42191;47.562;9.686;2022-08-18T14:04:24;96356.00;;;26.90
56286;BMP180;42191;47.562;9.686;2022-08-18T14:06:53;96353.00;;;26.90
56286;BMP180;42191;47.562;9.686;2022-08-18T14:09:20;96356.00;;;26.90
56286;BMP180;42191;47.562;9.686;2022-08-18T14:11:46;96361.00;;;26.90
56286;BMP180;42191;47.562;9.686;2022-08-18T14:14:13;96364.00;;;26.90
56286;BMP180;42191;47.562;9.686;2022-08-18T14:16:40;96350.00;;;26.80
56286;BMP180;42191;47.562;9.686;2022-08-18T14:19:06;96357.00;;;26.80
56286;BMP180;42191;47.562;9.686;2022-08-18T14:21:52;96356.00;;;26.80
56286;BMP180;42191;47.562;9.686;2022-08-18T14:24:39;96352.00;;;26.80
56286;BMP180;42191;47.562;9.686;2022-08-18T14:27:29;96357.00;;;26.80
56286;BMP180;42191;47.562;9.686;2022-08-18T14:29:57;96356.00;;;26.80
56286;BMP180;42191;47.562;9.686;2022-08-18T14:32:24;96367.00;;;26.80
56286;BMP180;42191;47.562;9.686;2022-08-18T14:34:52;96359.00;;;26.80
56286;BMP180;42191;47.562;9.686;2022-08-18T14:37:19;96351.00;;;26.80
56286;BMP180;42191;47.562;9.686;2022-08-18T14:39:45;96363.00;;;26.80
56286;BMP180;42191;47.562;9.686;2022-08-18T14:42:14;96352.00;;;26.80
56286;BMP180;42191;47.562;9.686;2022-08-18T14:44:40;96347.00;;;26.70
56286;BMP180;42191;47.562;9.686;2022-08-18T14:47:06;96350.00;;;26.70
56286;BMP180;42191;47.562;9.686;2022-08-18T14:49:32;96351.00;;;26.70
56286;BMP180;42191;47.562;9.686;2022-08-18T14:52:01;96347.00;;;26.70
56286;BMP180;42191;47.562;9.686;2022-08-18T14:54:28;96351.00;;;26.60
56286;BMP180;42191;47.562;9.686;2022-08-18T14:56:54;96351.00;;;26.60
56286;BMP180;42191;47.562;9.686;2022-08-18T14:59:20;96355.00;;;26.60
56286;BMP180;42191;47.562;9.686;2022-08-18T15:01:48;96349.00;;;26.60
56286;BMP180;42191;47.562;9.686;2022-08-18T15:04:14;96348.00;;;26.60
56286;BMP180;42191;47.562;9.686;2022-08-18T15:06:41;96352.00;;;26.60
56286;BMP180;42191;47.562;9.686;2022-08-18T15:09:07;96356.00;;;26.50
56286;BMP180;42191;47.562;9.686;2022-08-18T15:11:34;96365.00;;;26.50
56286;BMP180;42191;47.562;9.686;2022-08-18T15:14:00;96356.00;;;26.50
56286;BMP180;42191;47.562;9.686;2022-08-18T15:16:26;96358.00;;;26.50
56286;BMP180;42191;47.562;9.686;2022-08-18T15:18:53;96365.00;;;26.50
56286;BMP180;42191;47.562;9.686;2022-08-18T15:21:19;96364.00;;;26.40
56286;BMP180;42191;47.562;9.686;2022-08-18T15:24:04;96370.00;;;26.30
56286;BMP180;42191;47.562;9.686;2022-08-18T15:26:52;96368.00;;;26.20
56286;BMP180;42191;47.562;9.686;2022-08-18T15:29:19;96375.00;;;26.10
56286;BMP180;42191;47.562;9.686;2022-08-18T15:31:45;96381.00;;;26.10
56286;BMP180;42191;47.562;9.686;2022-08-18T15:34:11;96383.00;;;26.00
56286;BMP180;42191;47.562;9.686;2022-08-18T15:36:37;96395.00;;;26.00
56286;BMP180;42191;47.562;9.686;2022-08-18T15:39:04;96392.00;;;25.90
56286;BMP180;42191;47.562;9.686;2022-08-18T15:41:37;96397.00;;;25.80
56286;BMP180;42191;47.562;9.686;2022-08-18T15:44:06;96400.00;;;25.70
56286;BMP180;42191;47.562;9.686;2022-08-18T15:46:34;96400.00;;;25.60
56286;BMP180;42191;47.562;9.686;2022-08-18T15:49:02;96417.00;;;25.50
56286;BMP180;42191;47.562;9.686;2022-08-18T15:51:31;96415.00;;;25.40
56286;BMP180;42191;47.562;9.686;2022-08-18T15:53:57;96431.00;;;25.20
56286;BMP180;42191;47.562;9.686;2022-08-18T15:56:25;96421.00;;;25.00
56286;BMP180;42191;47.562;9.686;2022-08-18T15:58:53;96424.00;;;24.90
56286;BMP180;42191;47.562;9.686;2022-08-18T16:01:21;96436.00;;;24.80
56286;BMP180;42191;47.562;9.686;2022-08-18T16:03:48;96427.00;;;24.70
56286;BMP180;42191;47.562;9.686;2022-08-18T16:06:20;96435.00;;;24.60
56286;BMP180;42191;47.562;9.686;2022-08-18T16:08:48;96433.00;;;24.50
56286;BMP180;42191;47.562;9.686;2022-08-18T16:11:15;96436.00;;;24.50
56286;BMP180;42191;47.562;9.686;2022-08-18T16:13:44;96438.00;;;24.40
56286;BMP180;42191;47.562;9.686;2022-08-18T16:16:17;96438.00;;;24.30
56286;BMP180;42191;47.562;9.686;2022-08-18T16:18:43;96444.00;;;24.20
56286;BMP180;42191;47.562;9.686;2022-08-18T16:21:14;96453.00;;;24.20
56286;BMP180;42191;47.562;9.686;2022-08-18T16:23:43;96453.00;;;24.10
56286;BMP180;42191;47.562;9.686;2022-08-18T16:26:10;96458.00;;;24.10
56286;BMP180;42191;47.562;9.686;2022-08-18T16:28:48;96450.00;;;24.10
56286;BMP180;42191;47.562;9.686;2022-08-18T16:31:19;96434.00;;;24.00
56286;BMP180;42191;47.562;9.686;2022-08-18T16:33:50;96423.00;;;24.00
56286;BMP180;42191;47.562;9.686;2022-08-18T16:36:17;96413.00;;;23.90
56286;BMP180;42191;47.562;9.686;2022-08-18T16:38:43;96421.00;;;23.80
56286;BMP180;42191;47.562;9.686;2022-08-18T16:41:12;96438.00;;;23.70
56286;BMP180;42191;47.562;9.686;2022-08-18T16:43:40;96447.00;;;23.70